sensor_id;sensor_type;location;lat;lon;timestamp;temperature;humidity
74153;DHT22;62505;46.070;14.492;2024-02-21T00:00:01;22.50;63.00
74153;DHT22;62505;46.070;14.492;2024-02-21T00:02:29;22.50;63.00
74153;DHT22;62505;46.070;14.492;2024-02-21T00:04:56;22.50;63.00
74153;DHT22;62505;46.070;14.492;2024-02-21T00:07:24;22.50;63.00
74153;DHT22;62505;46.070;14.492;2024-02-21T00:09:51;22.50;63.00
74153;DHT22;62505;46.070;14.492;2024-02-21T00:12:18;22.50;63.00
74153;DHT22;62505;46.070;14.492;2024-02-21T00:14:45;22.50;62.90
74153;DHT22;62505;46.070;14.492;2024-02-21T00:17:12;22.50;62.90
74153;DHT22;62505;46.070;14.492;2024-02-21T00:19:39;22.50;62.90
74153;DHT22;62505;46.070;14.492;2024-02-21T00:22:06;22.50;62.90
74153;DHT22;62505;46.070;14.492;2024-02-21T00:24:35;22.50;63.00
74153;DHT22;62505;46.070;14.492;2024-02-21T00:27:02;22.50;63.10
74153;DHT22;62505;46.070;14.492;2024-02-21T00:29:29;22.50;63.00
74153;DHT22;62505;46.070;14.492;2024-02-21T00:31:56;22.50;63.00
74153;DHT22;62505;46.070;14.492;2024-02-21T00:34:23;22.50;62.90
74153;DHT22;62505;46.070;14.492;2024-02-21T00:36:49;22.50;62.90
74153;DHT22;62505;46.070;14.492;2024-02-21T00:39:16;22.50;62.90
74153;DHT22;62505;46.070;14.492;2024-02-21T00:41:45;22.50;62.90
74153;DHT22;62505;46.070;14.492;2024-02-21T00:44:12;22.50;62.80
74153;DHT22;62505;46.070;14.492;2024-02-21T00:46:39;22.50;62.90
74153;DHT22;62505;46.070;14.492;2024-02-21T00:49:06;22.50;62.90
74153;DHT22;62505;46.070;14.492;2024-02-21T00:51:33;22.50;62.90
74153;DHT22;62505;46.070;14.492;2024-02-21T00:54:00;22.50;62.90
74153;DHT22;62505;46.070;14.492;2024-02-21T00:56:27;22.50;62.90
74153;DHT22;62505;46.070;14.492;2024-02-21T00:58:56;22.50;62.90
74153;DHT22;62505;46.070;14.492;2024-02-21T01:01:24;22.50;62.90
74153;DHT22;62505;46.070;14.492;2024-02-21T01:03:51;22.50;62.80
74153;DHT22;62505;46.070;14.492;2024-02-21T01:06:19;22.50;62.80
74153;DHT22;62505;46.070;14.492;2024-02-21T01:08:46;22.50;62.90
74153;DHT22;62505;46.070;14.492;2024-02-21T01:11:13;22.50;62.90
74153;DHT22;62505;46.070;14.492;2024-02-21T01:13:40;22.50;62.90
74153;DHT22;62505;46.070;14.492;2024-02-21T01:16:08;22.50;62.90
74153;DHT22;62505;46.070;14.492;2024-02-21T01:18:37;22.50;62.80
74153;DHT22;62505;46.070;14.492;2024-02-21T01:21:05;22.50;62.90
74153;DHT22;62505;46.070;14.492;2024-02-21T01:23:32;22.50;62.90
74153;DHT22;62505;46.070;14.492;2024-02-21T01:25:59;22.50;62.80
74153;DHT22;62505;46.070;14.492;2024-02-21T01:28:26;22.50;62.80
74153;DHT22;62505;46.070;14.492;2024-02-21T01:30:53;22.50;62.90
74153;DHT22;62505;46.070;14.492;2024-02-21T01:33:22;22.50;62.80
74153;DHT22;62505;46.070;14.492;2024-02-21T01:35:49;22.50;62.80
74153;DHT22;62505;46.070;14.492;2024-02-21T01:38:16;22.50;63.60
74153;DHT22;62505;46.070;14.492;2024-02-21T01:40:43;22.50;62.80
74153;DHT22;62505;46.070;14.492;2024-02-21T01:43:17;22.50;62.80
74153;DHT22;62505;46.070;14.492;2024-02-21T01:45:48;22.50;62.80
74153;DHT22;62505;46.070;14.492;2024-02-21T01:48:17;22.50;62.80
74153;DHT22;62505;46.070;14.492;2024-02-21T01:50:46;22.50;62.80
74153;DHT22;62505;46.070;14.492;2024-02-21T01:53:14;22.50;62.80
74153;DHT22;62505;46.070;14.492;2024-02-21T01:55:44;22.50;63.50
74153;DHT22;62505;46.070;14.492;2024-02-21T01:58:12;22.50;62.80
74153;DHT22;62505;46.070;14.492;2024-02-21T02:00:41;22.50;62.80
74153;DHT22;62505;46.070;14.492;2024-02-21T02:03:10;22.50;62.80
74153;DHT22;62505;46.070;14.492;2024-02-21T02:05:44;22.50;62.80
74153;DHT22;62505;46.070;14.492;2024-02-21T02:08:12;22.50;62.70
74153;DHT22;62505;46.070;14.492;2024-02-21T02:10:40;22.50;62.80
74153;DHT22;62505;46.070;14.492;2024-02-21T02:13:07;22.50;62.70
74153;DHT22;62505;46.070;14.492;2024-02-21T02:15:38;22.50;62.70
74153;DHT22;62505;46.070;14.492;2024-02-21T02:18:06;22.50;62.70
74153;DHT22;62505;46.070;14.492;2024-02-21T02:20:33;22.50;62.80
74153;DHT22;62505;46.070;14.492;2024-02-21T02:23:06;22.50;62.80
74153;DHT22;62505;46.070;14.492;2024-02-21T02:25:35;22.50;62.70
74153;DHT22;62505;46.070;14.492;2024-02-21T02:28:03;22.50;62.70
74153;DHT22;62505;46.070;14.492;2024-02-21T02:30:32;22.50;62.70
74153;DHT22;62505;46.070;14.492;2024-02-21T02:32:59;22.50;62.70
74153;DHT22;62505;46.070;14.492;2024-02-21T02:35:26;22.50;62.60
74153;DHT22;62505;46.070;14.492;2024-02-21T02:37:53;22.50;62.70
74153;DHT22;62505;46.070;14.492;2024-02-21T02:40:20;22.50;62.60
74153;DHT22;62505;46.070;14.492;2024-02-21T02:42:49;22.50;62.60
74153;DHT22;62505;46.070;14.492;2024-02-21T02:45:16;22.50;62.60
74153;DHT22;62505;46.070;14.492;2024-02-21T02:47:44;22.50;62.70
74153;DHT22;62505;46.070;14.492;2024-02-21T02:50:12;22.50;62.60
74153;DHT22;62505;46.070;14.492;2024-02-21T02:52:40;22.50;62.60
74153;DHT22;62505;46.070;14.492;2024-02-21T02:55:07;22.50;62.60
74153;DHT22;62505;46.070;14.492;2024-02-21T02:57:34;22.50;62.60
74153;DHT22;62505;46.070;14.492;2024-02-21T03:00:03;22.50;62.60
74153;DHT22;62505;46.070;14.492;2024-02-21T03:02:32;22.50;62.60
74153;DHT22;62505;46.070;14.492;2024-02-21T03:04:59;22.50;62.60
74153;DHT22;62505;46.070;14.492;2024-02-21T03:07:26;22.50;62.50
74153;DHT22;62505;46.070;14.492;2024-02-21T03:09:53;22.50;62.50
74153;DHT22;62505;46.070;14.492;2024-02-21T03:12:20;22.50;62.50
74153;DHT22;62505;46.070;14.492;2024-02-21T03:14:53;22.50;62.50
74153;DHT22;62505;46.070;14.492;2024-02-21T03:17:21;22.50;62.50
74153;DHT22;62505;46.070;14.492;2024-02-21T03:19:48;22.50;62.50
74153;DHT22;62505;46.070;14.492;2024-02-21T03:22:15;22.50;62.50
74153;DHT22;62505;46.070;14.492;2024-02-21T03:24:44;22.50;62.40
74153;DHT22;62505;46.070;14.492;2024-02-21T03:27:11;22.40;62.40
74153;DHT22;62505;46.070;14.492;2024-02-21T03:29:38;22.50;62.50
74153;DHT22;62505;46.070;14.492;2024-02-21T03:32:05;22.50;62.50
74153;DHT22;62505;46.070;14.492;2024-02-21T03:34:33;22.50;62.40
74153;DHT22;62505;46.070;14.492;2024-02-21T03:37:00;22.50;62.40
74153;DHT22;62505;46.070;14.492;2024-02-21T03:39:27;22.50;62.40
74153;DHT22;62505;46.070;14.492;2024-02-21T03:41:57;22.50;62.50
74153;DHT22;62505;46.070;14.492;2024-02-21T03:44:26;22.50;62.50
74153;DHT22;62505;46.070;14.492;2024-02-21T03:46:53;22.50;62.50
74153;DHT22;62505;46.070;14.492;2024-02-21T03:49:20;22.50;62.50
74153;DHT22;62505;46.070;14.492;2024-02-21T03:51:49;22.50;62.40
74153;DHT22;62505;46.070;14.492;2024-02-21T03:54:16;22.50;62.40
74153;DHT22;62505;46.070;14.492;2024-02-21T03:56:43;22.50;62.50
74153;DHT22;62505;46.070;14.492;2024-02-21T03:59:10;22.50;62.40
74153;DHT22;62505;46.070;14.492;2024-02-21T04:01:37;22.50;62.40
74153;DHT22;62505;46.070;14.492;2024-02-21T04:04:04;22.50;62.50
74153;DHT22;62505;46.070;14.492;2024-02-21T04:06:31;22.50;62.40
74153;DHT22;62505;46.070;14.492;2024-02-21T04:08:59;22.50;62.40
74153;DHT22;62505;46.070;14.492;2024-02-21T04:11:26;22.50;62.40
74153;DHT22;62505;46.070;14.492;2024-02-21T04:13:53;22.50;62.10
74153;DHT22;62505;46.070;14.492;2024-02-21T04:16:20;22.50;62.20
74153;DHT22;62505;46.070;14.492;2024-02-21T04:18:47;22.50;62.20
74153;DHT22;62505;46.070;14.492;2024-02-21T04:21:14;22.50;62.10
74153;DHT22;62505;46.070;14.492;2024-02-21T04:23:42;22.50;62.20
74153;DHT22;62505;46.070;14.492;2024-02-21T04:26:10;22.50;62.20
74153;DHT22;62505;46.070;14.492;2024-02-21T04:28:37;22.50;62.10
74153;DHT22;62505;46.070;14.492;2024-02-21T04:31:04;22.50;62.20
74153;DHT22;62505;46.070;14.492;2024-02-21T04:33:32;22.50;62.20
74153;DHT22;62505;46.070;14.492;2024-02-21T04:35:59;22.50;62.20
74153;DHT22;62505;46.070;14.492;2024-02-21T04:38:26;22.50;62.10
74153;DHT22;62505;46.070;14.492;2024-02-21T04:40:54;22.50;62.10
74153;DHT22;62505;46.070;14.492;2024-02-21T04:43:22;22.50;62.00
74153;DHT22;62505;46.070;14.492;2024-02-21T04:45:49;22.50;62.00
74153;DHT22;62505;46.070;14.492;2024-02-21T04:48:19;22.50;62.10
74153;DHT22;62505;46.070;14.492;2024-02-21T04:50:46;22.50;62.10
74153;DHT22;62505;46.070;14.492;2024-02-21T04:53:13;22.50;62.10
74153;DHT22;62505;46.070;14.492;2024-02-21T04:55:40;22.40;53.50
74153;DHT22;62505;46.070;14.492;2024-02-21T04:58:07;22.00;47.30
74153;DHT22;62505;46.070;14.492;2024-02-21T05:00:35;21.60;45.30
74153;DHT22;62505;46.070;14.492;2024-02-21T05:03:02;21.30;44.10
74153;DHT22;62505;46.070;14.492;2024-02-21T05:05:29;21.00;43.60
74153;DHT22;62505;46.070;14.492;2024-02-21T05:07:56;20.90;52.50
74153;DHT22;62505;46.070;14.492;2024-02-21T05:10:23;21.30;62.50
74153;DHT22;62505;46.070;14.492;2024-02-21T05:12:50;21.50;62.60
74153;DHT22;62505;46.070;14.492;2024-02-21T05:15:17;21.60;60.90
74153;DHT22;62505;46.070;14.492;2024-02-21T05:17:46;21.70;60.30
74153;DHT22;62505;46.070;14.492;2024-02-21T05:20:13;21.90;59.30
74153;DHT22;62505;46.070;14.492;2024-02-21T05:22:40;22.10;59.00
74153;DHT22;62505;46.070;14.492;2024-02-21T05:25:07;22.20;59.10
74153;DHT22;62505;46.070;14.492;2024-02-21T05:27:34;22.30;58.50
74153;DHT22;62505;46.070;14.492;2024-02-21T05:30:03;22.40;58.80
74153;DHT22;62505;46.070;14.492;2024-02-21T05:32:30;22.50;58.60
74153;DHT22;62505;46.070;14.492;2024-02-21T05:34:59;22.70;58.30
74153;DHT22;62505;46.070;14.492;2024-02-21T05:37:25;22.80;58.20
74153;DHT22;62505;46.070;14.492;2024-02-21T05:39:52;22.80;58.30
74153;DHT22;62505;46.070;14.492;2024-02-21T05:42:19;22.90;58.20
74153;DHT22;62505;46.070;14.492;2024-02-21T05:44:46;23.00;58.20
74153;DHT22;62505;46.070;14.492;2024-02-21T05:47:13;23.00;58.10
74153;DHT22;62505;46.070;14.492;2024-02-21T05:49:41;23.00;58.10
74153;DHT22;62505;46.070;14.492;2024-02-21T05:52:09;23.10;58.20
74153;DHT22;62505;46.070;14.492;2024-02-21T05:54:38;23.10;58.40
74153;DHT22;62505;46.070;14.492;2024-02-21T05:57:05;23.10;58.50
74153;DHT22;62505;46.070;14.492;2024-02-21T05:59:32;23.10;58.50
74153;DHT22;62505;46.070;14.492;2024-02-21T06:02:01;23.10;58.50
74153;DHT22;62505;46.070;14.492;2024-02-21T06:04:30;23.10;58.50
74153;DHT22;62505;46.070;14.492;2024-02-21T06:06:57;23.10;58.60
74153;DHT22;62505;46.070;14.492;2024-02-21T06:09:25;23.10;58.70
74153;DHT22;62505;46.070;14.492;2024-02-21T06:11:52;23.00;58.80
74153;DHT22;62505;46.070;14.492;2024-02-21T06:14:19;23.00;58.90
74153;DHT22;62505;46.070;14.492;2024-02-21T06:16:46;23.00;58.90
74153;DHT22;62505;46.070;14.492;2024-02-21T06:19:13;23.00;59.00
74153;DHT22;62505;46.070;14.492;2024-02-21T06:21:40;23.00;59.10
74153;DHT22;62505;46.070;14.492;2024-02-21T06:24:07;23.00;59.30
74153;DHT22;62505;46.070;14.492;2024-02-21T06:26:36;22.90;59.40
74153;DHT22;62505;46.070;14.492;2024-02-21T06:29:03;22.90;59.50
74153;DHT22;62505;46.070;14.492;2024-02-21T06:31:29;22.90;59.60
74153;DHT22;62505;46.070;14.492;2024-02-21T06:33:57;22.90;59.70
74153;DHT22;62505;46.070;14.492;2024-02-21T06:36:24;22.90;59.90
74153;DHT22;62505;46.070;14.492;2024-02-21T06:38:51;22.80;60.10
74153;DHT22;62505;46.070;14.492;2024-02-21T06:41:18;22.80;60.10
74153;DHT22;62505;46.070;14.492;2024-02-21T06:43:47;22.80;60.10
74153;DHT22;62505;46.070;14.492;2024-02-21T06:46:23;22.80;60.30
74153;DHT22;62505;46.070;14.492;2024-02-21T06:48:50;22.70;60.10
74153;DHT22;62505;46.070;14.492;2024-02-21T06:51:17;22.70;60.20
74153;DHT22;62505;46.070;14.492;2024-02-21T06:53:44;22.70;60.10
74153;DHT22;62505;46.070;14.492;2024-02-21T06:56:11;22.80;60.10
74153;DHT22;62505;46.070;14.492;2024-02-21T06:58:38;22.80;60.40
74153;DHT22;62505;46.070;14.492;2024-02-21T07:01:07;22.70;60.40
74153;DHT22;62505;46.070;14.492;2024-02-21T07:03:34;22.70;60.40
74153;DHT22;62505;46.070;14.492;2024-02-21T07:06:01;22.70;60.30
74153;DHT22;62505;46.070;14.492;2024-02-21T07:08:28;22.80;60.20
74153;DHT22;62505;46.070;14.492;2024-02-21T07:10:55;22.80;60.00
74153;DHT22;62505;46.070;14.492;2024-02-21T07:13:22;22.90;59.80
74153;DHT22;62505;46.070;14.492;2024-02-21T07:15:48;23.00;59.60
74153;DHT22;62505;46.070;14.492;2024-02-21T07:18:17;23.00;59.30
74153;DHT22;62505;46.070;14.492;2024-02-21T07:20:44;23.10;59.20
74153;DHT22;62505;46.070;14.492;2024-02-21T07:23:11;23.10;59.10
74153;DHT22;62505;46.070;14.492;2024-02-21T07:25:38;23.10;59.10
74153;DHT22;62505;46.070;14.492;2024-02-21T07:28:06;23.10;59.10
74153;DHT22;62505;46.070;14.492;2024-02-21T07:30:34;23.10;59.10
74153;DHT22;62505;46.070;14.492;2024-02-21T07:33:01;23.10;59.30
74153;DHT22;62505;46.070;14.492;2024-02-21T07:35:30;23.00;59.30
74153;DHT22;62505;46.070;14.492;2024-02-21T07:37:57;23.00;59.40
74153;DHT22;62505;46.070;14.492;2024-02-21T07:40:24;23.00;59.50
74153;DHT22;62505;46.070;14.492;2024-02-21T07:42:51;23.00;59.60
74153;DHT22;62505;46.070;14.492;2024-02-21T07:45:18;23.00;59.60
74153;DHT22;62505;46.070;14.492;2024-02-21T07:47:47;23.00;59.70
74153;DHT22;62505;46.070;14.492;2024-02-21T07:50:14;23.00;59.70
74153;DHT22;62505;46.070;14.492;2024-02-21T07:52:43;23.00;59.70
74153;DHT22;62505;46.070;14.492;2024-02-21T07:55:10;22.90;59.80
74153;DHT22;62505;46.070;14.492;2024-02-21T07:57:37;23.00;59.90
74153;DHT22;62505;46.070;14.492;2024-02-21T08:00:05;22.90;59.80
74153;DHT22;62505;46.070;14.492;2024-02-21T08:02:35;23.00;60.00
74153;DHT22;62505;46.070;14.492;2024-02-21T08:05:03;22.90;59.90
74153;DHT22;62505;46.070;14.492;2024-02-21T08:07:30;22.90;60.00
74153;DHT22;62505;46.070;14.492;2024-02-21T08:09:59;23.00;60.00
74153;DHT22;62505;46.070;14.492;2024-02-21T08:12:26;22.90;60.00
74153;DHT22;62505;46.070;14.492;2024-02-21T08:14:53;22.90;60.00
74153;DHT22;62505;46.070;14.492;2024-02-21T08:17:20;22.90;60.10
74153;DHT22;62505;46.070;14.492;2024-02-21T08:19:47;22.90;60.00
74153;DHT22;62505;46.070;14.492;2024-02-21T08:22:15;22.90;60.90
74153;DHT22;62505;46.070;14.492;2024-02-21T08:24:42;22.90;60.20
74153;DHT22;62505;46.070;14.492;2024-02-21T08:27:10;22.90;60.30
74153;DHT22;62505;46.070;14.492;2024-02-21T08:29:37;22.90;60.50
74153;DHT22;62505;46.070;14.492;2024-02-21T08:32:04;22.90;60.40
74153;DHT22;62505;46.070;14.492;2024-02-21T08:34:31;22.80;60.30
74153;DHT22;62505;46.070;14.492;2024-02-21T08:36:59;22.80;60.30
74153;DHT22;62505;46.070;14.492;2024-02-21T08:39:26;22.80;60.20
74153;DHT22;62505;46.070;14.492;2024-02-21T08:41:56;22.80;60.20
74153;DHT22;62505;46.070;14.492;2024-02-21T08:44:24;22.80;60.20
74153;DHT22;62505;46.070;14.492;2024-02-21T08:46:52;22.80;60.20
74153;DHT22;62505;46.070;14.492;2024-02-21T08:49:19;22.80;60.00
74153;DHT22;62505;46.070;14.492;2024-02-21T08:51:46;22.90;59.90
74153;DHT22;62505;46.070;14.492;2024-02-21T08:54:13;23.00;59.70
74153;DHT22;62505;46.070;14.492;2024-02-21T08:56:40;23.10;59.50
74153;DHT22;62505;46.070;14.492;2024-02-21T08:59:07;23.10;59.40
74153;DHT22;62505;46.070;14.492;2024-02-21T09:01:35;23.10;59.30
74153;DHT22;62505;46.070;14.492;2024-02-21T09:04:03;23.10;59.20
74153;DHT22;62505;46.070;14.492;2024-02-21T09:06:30;23.10;59.20
74153;DHT22;62505;46.070;14.492;2024-02-21T09:08:59;23.10;59.20
74153;DHT22;62505;46.070;14.492;2024-02-21T09:11:26;23.10;59.20
74153;DHT22;62505;46.070;14.492;2024-02-21T09:13:54;23.10;59.30
74153;DHT22;62505;46.070;14.492;2024-02-21T09:16:21;23.10;59.40
74153;DHT22;62505;46.070;14.492;2024-02-21T09:18:50;23.00;59.40
74153;DHT22;62505;46.070;14.492;2024-02-21T09:21:18;23.00;59.40
74153;DHT22;62505;46.070;14.492;2024-02-21T09:23:45;23.00;59.40
74153;DHT22;62505;46.070;14.492;2024-02-21T09:26:12;23.00;59.50
74153;DHT22;62505;46.070;14.492;2024-02-21T09:28:42;23.00;59.50
74153;DHT22;62505;46.070;14.492;2024-02-21T09:31:09;23.00;59.60
74153;DHT22;62505;46.070;14.492;2024-02-21T09:33:36;23.00;59.60
74153;DHT22;62505;46.070;14.492;2024-02-21T09:36:06;23.00;59.70
74153;DHT22;62505;46.070;14.492;2024-02-21T09:38:33;23.00;59.60
74153;DHT22;62505;46.070;14.492;2024-02-21T09:41:03;22.90;59.70
74153;DHT22;62505;46.070;14.492;2024-02-21T09:43:31;22.90;59.80
74153;DHT22;62505;46.070;14.492;2024-02-21T09:46:01;22.90;59.90
74153;DHT22;62505;46.070;14.492;2024-02-21T09:48:39;22.90;60.00
74153;DHT22;62505;46.070;14.492;2024-02-21T09:51:12;22.90;60.00
74153;DHT22;62505;46.070;14.492;2024-02-21T09:53:42;22.90;60.00
74153;DHT22;62505;46.070;14.492;2024-02-21T09:56:10;22.90;60.10
74153;DHT22;62505;46.070;14.492;2024-02-21T09:58:38;22.90;60.10
74153;DHT22;62505;46.070;14.492;2024-02-21T10:01:05;22.90;60.20
74153;DHT22;62505;46.070;14.492;2024-02-21T10:03:32;22.90;60.30
74153;DHT22;62505;46.070;14.492;2024-02-21T10:06:03;22.90;60.10
74153;DHT22;62505;46.070;14.492;2024-02-21T10:08:32;22.90;60.10
74153;DHT22;62505;46.070;14.492;2024-02-21T10:10:58;22.90;60.10
74153;DHT22;62505;46.070;14.492;2024-02-21T10:13:28;22.90;60.30
74153;DHT22;62505;46.070;14.492;2024-02-21T10:16:03;22.90;60.40
74153;DHT22;62505;46.070;14.492;2024-02-21T10:18:30;22.90;60.30
74153;DHT22;62505;46.070;14.492;2024-02-21T10:21:01;22.90;60.30
74153;DHT22;62505;46.070;14.492;2024-02-21T10:23:28;22.90;60.30
74153;DHT22;62505;46.070;14.492;2024-02-21T10:26:07;22.90;60.30
74153;DHT22;62505;46.070;14.492;2024-02-21T10:28:34;22.90;60.20
74153;DHT22;62505;46.070;14.492;2024-02-21T10:31:01;23.00;60.10
74153;DHT22;62505;46.070;14.492;2024-02-21T10:33:28;23.00;60.00
74153;DHT22;62505;46.070;14.492;2024-02-21T10:36:06;23.10;59.90
74153;DHT22;62505;46.070;14.492;2024-02-21T10:38:35;23.10;59.70
74153;DHT22;62505;46.070;14.492;2024-02-21T10:41:03;23.20;59.50
74153;DHT22;62505;46.070;14.492;2024-02-21T10:43:37;23.20;59.50
74153;DHT22;62505;46.070;14.492;2024-02-21T10:46:06;23.20;59.50
74153;DHT22;62505;46.070;14.492;2024-02-21T10:48:42;23.20;59.40
74153;DHT22;62505;46.070;14.492;2024-02-21T10:51:16;23.20;59.40
74153;DHT22;62505;46.070;14.492;2024-02-21T10:53:47;23.20;59.40
74153;DHT22;62505;46.070;14.492;2024-02-21T10:56:22;23.20;59.50
74153;DHT22;62505;46.070;14.492;2024-02-21T10:58:53;23.10;59.40
74153;DHT22;62505;46.070;14.492;2024-02-21T11:01:21;23.10;59.50
74153;DHT22;62505;46.070;14.492;2024-02-21T11:03:49;23.10;59.60
74153;DHT22;62505;46.070;14.492;2024-02-21T11:06:18;23.10;59.60
74153;DHT22;62505;46.070;14.492;2024-02-21T11:08:47;23.10;59.70
74153;DHT22;62505;46.070;14.492;2024-02-21T11:11:15;23.10;59.70
74153;DHT22;62505;46.070;14.492;2024-02-21T11:13:44;23.00;59.70
74153;DHT22;62505;46.070;14.492;2024-02-21T11:16:22;23.00;59.80
74153;DHT22;62505;46.070;14.492;2024-02-21T11:18:49;23.00;59.90
74153;DHT22;62505;46.070;14.492;2024-02-21T11:21:16;23.00;59.90
74153;DHT22;62505;46.070;14.492;2024-02-21T11:23:43;23.00;59.90
74153;DHT22;62505;46.070;14.492;2024-02-21T11:26:17;23.00;59.90
74153;DHT22;62505;46.070;14.492;2024-02-21T11:28:56;23.00;60.00
74153;DHT22;62505;46.070;14.492;2024-02-21T11:31:25;23.00;60.00
74153;DHT22;62505;46.070;14.492;2024-02-21T11:33:53;23.00;60.00
74153;DHT22;62505;46.070;14.492;2024-02-21T11:36:24;23.00;60.00
74153;DHT22;62505;46.070;14.492;2024-02-21T11:38:52;23.00;60.20
74153;DHT22;62505;46.070;14.492;2024-02-21T11:41:19;23.00;60.10
74153;DHT22;62505;46.070;14.492;2024-02-21T11:43:46;23.00;60.20
74153;DHT22;62505;46.070;14.492;2024-02-21T11:46:14;23.00;60.30
74153;DHT22;62505;46.070;14.492;2024-02-21T11:48:42;23.00;60.10
74153;DHT22;62505;46.070;14.492;2024-02-21T11:51:21;23.00;60.50
74153;DHT22;62505;46.070;14.492;2024-02-21T11:53:51;23.00;60.40
74153;DHT22;62505;46.070;14.492;2024-02-21T11:56:18;22.90;60.30
74153;DHT22;62505;46.070;14.492;2024-02-21T11:58:46;22.90;60.30
74153;DHT22;62505;46.070;14.492;2024-02-21T12:01:13;22.90;60.60
74153;DHT22;62505;46.070;14.492;2024-02-21T12:03:42;22.90;60.40
74153;DHT22;62505;46.070;14.492;2024-02-21T12:06:16;22.90;60.30
74153;DHT22;62505;46.070;14.492;2024-02-21T12:08:46;22.90;60.00
74153;DHT22;62505;46.070;14.492;2024-02-21T12:11:18;22.90;60.00
74153;DHT22;62505;46.070;14.492;2024-02-21T12:13:45;22.90;60.10
74153;DHT22;62505;46.070;14.492;2024-02-21T12:16:15;22.90;60.00
74153;DHT22;62505;46.070;14.492;2024-02-21T12:18:45;22.90;59.90
74153;DHT22;62505;46.070;14.492;2024-02-21T12:21:12;23.00;59.80
74153;DHT22;62505;46.070;14.492;2024-02-21T12:23:39;23.00;59.70
74153;DHT22;62505;46.070;14.492;2024-02-21T12:26:06;23.10;59.50
74153;DHT22;62505;46.070;14.492;2024-02-21T12:28:34;23.10;59.40
74153;DHT22;62505;46.070;14.492;2024-02-21T12:31:01;23.10;59.30
74153;DHT22;62505;46.070;14.492;2024-02-21T12:33:30;23.10;59.20
74153;DHT22;62505;46.070;14.492;2024-02-21T12:36:00;23.10;59.20
74153;DHT22;62505;46.070;14.492;2024-02-21T12:38:27;23.00;59.20
74153;DHT22;62505;46.070;14.492;2024-02-21T12:40:54;23.10;59.20
74153;DHT22;62505;46.070;14.492;2024-02-21T12:43:22;23.10;59.30
74153;DHT22;62505;46.070;14.492;2024-02-21T12:45:49;23.00;59.30
74153;DHT22;62505;46.070;14.492;2024-02-21T12:48:16;23.10;59.30
74153;DHT22;62505;46.070;14.492;2024-02-21T12:50:48;23.00;59.30
74153;DHT22;62505;46.070;14.492;2024-02-21T12:53:19;23.00;59.40
74153;DHT22;62505;46.070;14.492;2024-02-21T12:55:47;23.00;59.40
74153;DHT22;62505;46.070;14.492;2024-02-21T12:58:14;23.00;59.40
74153;DHT22;62505;46.070;14.492;2024-02-21T13:00:41;23.00;59.50
74153;DHT22;62505;46.070;14.492;2024-02-21T13:03:08;23.00;59.50
74153;DHT22;62505;46.070;14.492;2024-02-21T13:05:36;23.00;59.50
74153;DHT22;62505;46.070;14.492;2024-02-21T13:08:05;23.00;59.50
74153;DHT22;62505;46.070;14.492;2024-02-21T13:10:33;23.00;59.50
74153;DHT22;62505;46.070;14.492;2024-02-21T13:13:01;22.90;59.50
74153;DHT22;62505;46.070;14.492;2024-02-21T13:15:28;22.90;59.60
74153;DHT22;62505;46.070;14.492;2024-02-21T13:17:56;22.90;59.60
74153;DHT22;62505;46.070;14.492;2024-02-21T13:20:23;22.90;59.60
74153;DHT22;62505;46.070;14.492;2024-02-21T13:22:50;22.90;59.70
74153;DHT22;62505;46.070;14.492;2024-02-21T13:25:17;22.90;59.60
74153;DHT22;62505;46.070;14.492;2024-02-21T13:27:48;22.90;59.70
74153;DHT22;62505;46.070;14.492;2024-02-21T13:30:15;22.90;59.70
74153;DHT22;62505;46.070;14.492;2024-02-21T13:32:43;22.90;59.90
74153;DHT22;62505;46.070;14.492;2024-02-21T13:35:11;22.90;60.00
74153;DHT22;62505;46.070;14.492;2024-02-21T13:37:38;23.00;60.00
74153;DHT22;62505;46.070;14.492;2024-02-21T13:40:06;22.90;60.10
74153;DHT22;62505;46.070;14.492;2024-02-21T13:42:34;23.00;60.20
74153;DHT22;62505;46.070;14.492;2024-02-21T13:45:04;23.00;60.10
74153;DHT22;62505;46.070;14.492;2024-02-21T13:47:31;23.00;60.10
74153;DHT22;62505;46.070;14.492;2024-02-21T13:49:58;23.00;60.20
74153;DHT22;62505;46.070;14.492;2024-02-21T13:52:25;23.00;60.10
74153;DHT22;62505;46.070;14.492;2024-02-21T13:54:52;23.00;60.20
74153;DHT22;62505;46.070;14.492;2024-02-21T13:57:19;23.00;60.50
74153;DHT22;62505;46.070;14.492;2024-02-21T13:59:46;23.00;60.50
74153;DHT22;62505;46.070;14.492;2024-02-21T14:02:15;23.00;61.10
74153;DHT22;62505;46.070;14.492;2024-02-21T14:04:42;23.00;61.40
74153;DHT22;62505;46.070;14.492;2024-02-21T14:07:09;23.00;61.70
74153;DHT22;62505;46.070;14.492;2024-02-21T14:09:36;23.00;62.70
74153;DHT22;62505;46.070;14.492;2024-02-21T14:12:03;23.10;61.80
74153;DHT22;62505;46.070;14.492;2024-02-21T14:14:34;23.00;61.60
74153;DHT22;62505;46.070;14.492;2024-02-21T14:17:01;23.00;61.80
74153;DHT22;62505;46.070;14.492;2024-02-21T14:19:30;23.00;61.50
74153;DHT22;62505;46.070;14.492;2024-02-21T14:21:57;23.00;61.70
74153;DHT22;62505;46.070;14.492;2024-02-21T14:24:24;23.00;61.40
74153;DHT22;62505;46.070;14.492;2024-02-21T14:26:53;23.00;61.50
74153;DHT22;62505;46.070;14.492;2024-02-21T14:29:20;23.00;61.70
74153;DHT22;62505;46.070;14.492;2024-02-21T14:31:47;23.00;61.80
74153;DHT22;62505;46.070;14.492;2024-02-21T14:34:14;23.00;62.10
74153;DHT22;62505;46.070;14.492;2024-02-21T14:36:43;23.00;61.40
74153;DHT22;62505;46.070;14.492;2024-02-21T14:39:10;23.00;61.30
74153;DHT22;62505;46.070;14.492;2024-02-21T14:41:37;23.00;60.60
74153;DHT22;62505;46.070;14.492;2024-02-21T14:44:05;22.90;59.40
74153;DHT22;62505;46.070;14.492;2024-02-21T14:46:36;22.90;58.60
74153;DHT22;62505;46.070;14.492;2024-02-21T14:49:04;22.90;58.20
74153;DHT22;62505;46.070;14.492;2024-02-21T14:51:31;22.90;57.70
74153;DHT22;62505;46.070;14.492;2024-02-21T14:54:00;22.90;56.50
74153;DHT22;62505;46.070;14.492;2024-02-21T14:56:27;22.90;55.50
74153;DHT22;62505;46.070;14.492;2024-02-21T14:58:54;22.90;54.60
74153;DHT22;62505;46.070;14.492;2024-02-21T15:01:21;23.00;53.80
74153;DHT22;62505;46.070;14.492;2024-02-21T15:03:48;23.00;53.10
74153;DHT22;62505;46.070;14.492;2024-02-21T15:06:17;23.00;52.50
74153;DHT22;62505;46.070;14.492;2024-02-21T15:08:44;23.00;51.70
74153;DHT22;62505;46.070;14.492;2024-02-21T15:11:12;23.00;51.30
74153;DHT22;62505;46.070;14.492;2024-02-21T15:13:39;23.00;50.90
74153;DHT22;62505;46.070;14.492;2024-02-21T15:16:06;23.00;50.60
74153;DHT22;62505;46.070;14.492;2024-02-21T15:18:33;23.00;50.90